Airfield :
LOGIN :

Register | Disclaimer

   EN    FR    IT 

 










Legend :    VFR   Marginal VFR   IFR   Intensive IFR   Very Intensive IFR
Visi :
Ceiling :
>= 8 km
>= 3000ft
5 to 8 km
1000 to 3000 ft
1500m to 5 km
500 to 1000 ft
800 to 1500m
200 to 500 ft
< 800m
< 200 ft
Symbols :   Thunderstorms  Fog  Heavy snow  Heavy precipitations  Wind > 20 kt
SIGMETs :     Misc.  Thunderstorms  Icing  Turbulence  Mountain Waves  Volcanic Ashes






- Airport Elevation : 220 ft
- IATA code : CWL


EGFF - Cardiff Rhoose

CURRENT METAR :
  • 200320Z AUTO 06007KT 9999 NCD 05/01 Q1027

EXPIRED METARs :
  • 200250Z AUTO 06007KT 9999 NCD 06/01 Q1027
  • 200220Z AUTO 07008KT 9999 NCD 07/01 Q1026
  • 200150Z AUTO 07011KT 9999 NCD 07/02 Q1026
  • 200120Z AUTO 06008KT 9999 NCD 07/04 Q1026
  • 200050Z AUTO 04008KT 9999 NCD 07/03 Q1025
  • 200020Z AUTO 03008KT 9999 NCD 07/03 Q1025
  • 192350Z AUTO 02008KT 9999 NCD 07/02 Q1025
  • 192320Z AUTO 02007KT 9999 NCD 07/02 Q1025
  • 192250Z AUTO 02008KT 9999 NCD 07/02 Q1025
  • 192220Z AUTO 02006KT 9999 NCD 07/01 Q1024

TAF TAF EGFF
Valid from the 20 at 00:00 until the 21 at 00:00 UTC


192253Z 2000/2024 05008KT 9999 FEW030
ATIS : +44 1446 729 319



MET'MAP, your aeronautical weather chart ! - Copyright ORBIFLY December 2007 - Disclaimer

ORBIFLY MET'MAP TEAM :

Programming & Development : Alexandra Zaïnal
Original concept : Baudouin d'Aumeries
Technical & hardware support : Manuel Goepfert
Assistance : Marc-Olivier Méhu




SOURCES & CREDITS :

   NOAA